Saint George, UT

7:55 AM MDT on September 01, 2014 (GMT -0600)
Saint George Municipal | Change Station
CLOSE
Current Station
Airport
Location: St. George,
Elevation: 2940 ft
Nearby Weather Stations

Elev 2940 ft 37.09 °N, 113.59 °W | Updated 20 minutes ago

Clear
Clear
68 °F
Feels Like 68 °F
N
0
Wind Variable Wind from North

Today
High -- | Low -- °F
--% Chance of Precip.
Yesterday
High -- | Low -- °F
Precip. -- in
7:05 AM 8:02 PM
Waxing Crescent, 41% visible
Pressure 29.94 in
Visibility 10.0 miles
Clouds Clear
Dew Point 37 °F
Humidity 33%
Rainfall 0.00 in
Snow Depth Not available.
UV 0 out of 12
Pollen 7.40 out of 12
Air Quality Not available.
Flu Activity Not available.
METAR KSGU 011335Z AUTO 00000KT 10SM CLR 20/03 A2994 RMK AO1

More Conditions Fewer Conditions

Pressure 29.94 in
Visibility 10.0 miles
Clouds Clear
Dew Point 37 °F
Humidity 33%
Rainfall 0.00 in
Snow Depth Not available.
UV 0 out of 12
Pollen 7.40 out of 12
Air Quality Not available.
Flu Activity Not available.
METAR KSGU 011335Z AUTO 00000KT 10SM CLR 20/03 A2994 RMK AO1

More Conditions Fewer Conditions

10-Day Weather Forecast

Almanac

Astronomy

Sep. 01, 2014 Rise Set
Actual Time 7:05 AM MDT 8:02 PM MDT
Civil Twilight 6:38 AM MDT 8:29 PM MDT
Nautical Twilight 6:06 AM MDT 9:00 PM MDT
Astronomical Twilight 5:34 AM MDT 9:33 PM MDT
Moon 1:45 PM MDT No Moon Set
Length of Visible Light 13h 50m
Length of Day
12h 57m
Tomorrow will be 2m 17s shorter.
Waxing Crescent, 41% of the Moon is Illuminated
Today
Waxing Crescent
Sep 2
First Quarter
Sep 8
Full
Sep 15
Last Quarter
Sep 24
New

Today's Extremes

State Highs State Lows

Community

WunderPhotos

Upload Photos

1,749,222 photos uploaded!

Nearby

Snow Depth

Station Depth Elevation
Long Flat 0 in 8000 ft
Webster Flat 0 in 9200 ft
Midway Valley 5 in 9800 ft
Harris Flat 0 in 7800 ft
Long Valley Jct 1 in 7360 ft

Earthquake Activity

City Distance Mag. Time & Date
No recent earthquake activity has been reported nearby.
Minimum magnitude displayed is 2.5.

Coastal Water Temperatures

Place Temperature
No Stations Reporting

Nearby Weather Stations